Time;durP1;ratioP1;P1;durP2;ratioP2;P2;SDS_P1;SDS_P2;PMS_P1;PMS_P2;Temp;Humidity;BMP_temperature;BMP_pressure;BME280_temperature;BME280_humidity;BME280_pressure;Samples;Min_cycle;Max_cycle;Signal;HPM_P1;HPM_P2
2024/01/11 00:00:38;;;;;;;63.35;28.33;;;-2.70;99.90;;;-2.20;59.80;102066.56;5053573;28;20051;-86
2024/01/11 00:03:06;;;;;;;55.28;26.65;;;-2.60;99.90;;;-2.25;59.96;102064.22;5044161;28;20049;-85
2024/01/11 00:05:35;;;;;;;53.42;27.40;;;-2.80;99.90;;;-2.24;59.95;102079.00;5028025;28;20049;-85
2024/01/11 00:08:03;;;;;;;58.03;27.80;;;-2.80;99.90;;;-2.25;60.09;102081.66;5040980;28;20509;-86
2024/01/11 00:10:30;;;;;;;60.22;28.10;;;-2.80;99.90;;;-2.26;59.72;102077.38;5025974;28;20051;-85
2024/01/11 00:13:00;;;;;;;56.95;28.20;;;-2.80;99.90;;;-2.27;59.70;102076.53;5029548;28;20050;-85
2024/01/11 00:15:28;;;;;;;65.90;28.50;;;-2.80;99.90;;;-2.30;60.01;102068.88;5058577;28;20040;-86
2024/01/11 00:17:56;;;;;;;57.80;28.80;;;-2.80;99.90;;;-2.28;59.69;102074.03;5061274;28;20039;-85
2024/01/11 00:20:23;;;;;;;59.55;27.95;;;-2.70;99.90;;;-2.32;59.74;102068.13;5034152;28;20045;-86
2024/01/11 00:22:53;;;;;;;58.20;28.48;;;-2.80;99.90;;;-2.35;60.05;102061.28;5043700;28;20407;-85
2024/01/11 00:25:20;;;;;;;60.25;27.67;;;-2.90;99.90;;;-2.37;60.25;102063.16;5040596;28;20044;-85
2024/01/11 00:27:49;;;;;;;55.83;27.35;;;-2.80;99.90;;;-2.38;59.72;102063.25;5028905;28;20511;-85
2024/01/11 00:30:17;;;;;;;58.97;27.92;;;-2.90;99.90;;;-2.39;60.27;102064.16;5027919;28;20067;-86
2024/01/11 00:32:45;;;;;;;60.75;28.42;;;-2.90;99.90;;;-2.43;60.15;102057.47;5045256;28;20048;-85
2024/01/11 00:35:13;;;;;;;54.42;26.27;;;-2.80;99.90;;;-2.45;60.03;102059.31;5061585;28;20041;-85
2024/01/11 00:37:41;;;;;;;56.72;27.45;;;-3.00;99.90;;;-2.46;60.55;102049.78;5044685;28;20136;-86
2024/01/11 00:40:11;;;;;;;60.03;27.45;;;-3.00;99.90;;;-2.47;60.37;102046.34;5063569;28;20048;-85
2024/01/11 00:42:39;;;;;;;57.90;26.65;;;-3.00;99.90;;;-2.47;59.91;102051.56;5061121;28;20131;-86
2024/01/11 00:45:07;;;;;;;54.90;27.27;;;-3.00;99.90;;;-2.45;60.28;102038.41;5037403;28;20037;-85
2024/01/11 00:47:38;;;;;;;62.58;28.08;;;-3.00;99.90;;;-2.43;60.15;102050.47;5043823;28;20171;-85
2024/01/11 00:50:08;;;;;;;57.05;26.90;;;-2.90;99.90;;;-2.44;60.10;102058.38;5020357;28;20041;-85
2024/01/11 00:52:36;;;;;;;52.45;26.02;;;-3.00;99.90;;;-2.50;60.75;102056.94;5024275;28;20045;-86
2024/01/11 00:55:07;;;;;;;60.95;28.38;;;-3.00;99.90;;;-2.53;60.37;102054.53;5033293;28;20041;-85
2024/01/11 00:57:36;;;;;;;61.28;25.90;;;-3.10;99.90;;;-2.55;60.39;102045.91;5066205;28;20052;-86
2024/01/11 01:00:04;;;;;;;58.08;27.55;;;-3.10;99.90;;;-2.55;60.08;102050.31;5044474;28;20290;-86
2024/01/11 01:02:31;;;;;;;56.83;26.92;;;-3.10;99.90;;;-2.60;60.42;102054.03;5026945;28;20053;-86
2024/01/11 01:04:59;;;;;;;58.25;28.73;;;-3.10;99.90;;;-2.63;60.39;102062.03;5059840;28;20063;-86
2024/01/11 01:07:27;;;;;;;55.40;25.88;;;-3.20;99.90;;;-2.64;60.30;102057.72;5025707;28;20588;-85
2024/01/11 01:09:54;;;;;;;56.42;26.63;;;-3.20;99.90;;;-2.62;60.66;102060.28;5042389;28;20065;-85
2024/01/11 01:12:25;;;;;;;59.97;28.40;;;-3.20;99.90;;;-2.63;60.40;102063.81;5046815;28;20041;-85
2024/01/11 01:14:55;;;;;;;;;;;-3.20;99.90;;;-2.63;60.37;102056.81;5057951;28;20515;-85
2024/01/11 01:17:23;;;;;;;63.13;26.35;;;-3.20;99.90;;;-2.63;60.11;102054.22;5058205;28;19993;-86
2024/01/11 01:19:51;;;;;;;57.40;26.70;;;-3.20;99.90;;;-2.65;60.06;102061.28;5060002;28;20036;-86
2024/01/11 01:22:21;;;;;;;63.17;27.30;;;-3.20;99.90;;;-2.64;60.15;102064.72;5035288;28;20060;-86
2024/01/11 01:24:49;;;;;;;58.30;27.73;;;-3.20;99.90;;;-2.64;60.00;102049.88;5013028;28;20049;-86
2024/01/11 01:27:18;;;;;;;66.60;28.92;;;-3.20;99.90;;;-2.68;59.89;102064.06;4987916;28;20041;-86
2024/01/11 01:29:47;;;;;;;55.03;26.52;;;-3.20;99.90;;;-2.71;60.29;102066.00;5038434;28;20041;-86
2024/01/11 01:32:16;;;;;;;61.42;28.58;;;-3.30;99.90;;;-2.76;60.41;102070.66;5062272;28;20044;-85
2024/01/11 01:34:44;;;;;;;56.47;28.42;;;-3.30;99.90;;;-2.79;60.56;102074.25;5041009;28;20048;-85
2024/01/11 01:37:12;;;;;;;57.30;27.73;;;-3.30;99.90;;;-2.79;60.75;102073.41;5061517;28;20037;-85
2024/01/11 01:39:40;;;;;;;57.47;26.23;;;-3.30;99.90;;;-2.80;60.83;102083.03;5043169;28;20039;-85
2024/01/11 01:42:21;;;;;;;58.17;27.77;;;-3.30;99.90;;;-2.77;60.89;102079.41;5043301;28;20467;-86
2024/01/11 01:44:51;;;;;;;60.15;27.75;;;-3.40;99.90;;;-2.75;60.20;102074.94;5039694;28;20036;-86
2024/01/11 01:47:21;;;;;;;58.10;27.58;;;-3.30;99.90;;;-2.71;60.45;102066.84;5048354;28;20046;-86
2024/01/11 01:49:50;;;;;;;64.38;29.15;;;-3.20;99.90;;;-2.66;60.70;102064.81;5031576;28;20048;-86
2024/01/11 01:52:19;;;;;;;62.85;27.60;;;-3.10;99.90;;;-2.66;60.27;102058.75;4991116;28;20037;-86
2024/01/11 01:54:50;;;;;;;62.75;28.88;;;-3.20;99.90;;;-2.70;60.75;102065.91;5047063;28;20041;-86
2024/01/11 01:57:21;;;;;;;56.00;26.77;;;-3.20;99.90;;;-2.75;60.23;102065.34;5037473;28;20127;-86
2024/01/11 01:59:53;;;;;;;56.50;27.38;;;-3.20;99.90;;;-2.79;60.99;102060.38;5028957;28;20041;-85
2024/01/11 02:02:23;;;;;;;60.60;26.55;;;-3.30;99.90;;;-2.80;60.65;102054.31;5022931;28;20459;-85
2024/01/11 02:04:52;;;;;;;57.42;27.17;;;-3.30;99.90;;;-2.82;60.77;102061.38;5039310;28;20044;-85
2024/01/11 02:07:20;;;;;;;56.30;26.35;;;-3.40;99.90;;;-2.86;60.34;102063.31;5042857;28;20455;-85
2024/01/11 02:09:48;;;;;;;53.05;27.48;;;-3.40;99.90;;;-2.86;61.03;102057.25;5051404;28;20052;-85
2024/01/11 02:12:16;;;;;;;59.50;28.17;;;-3.40;99.90;;;-2.86;60.21;102062.47;5044740;28;20403;-85
2024/01/11 02:14:44;;;;;;;58.70;27.23;;;-3.40;99.90;;;-2.89;60.64;102068.69;5034737;28;20048;-85
2024/01/11 02:17:14;;;;;;;58.75;28.13;;;-3.40;99.90;;;-2.91;60.20;102078.41;5028509;28;20049;-86
2024/01/11 02:19:43;;;;;;;55.78;26.90;;;-3.50;99.90;;;-2.96;60.71;102072.59;5046377;28;20452;-85
2024/01/11 02:22:21;;;;;;;58.67;26.90;;;-3.50;99.90;;;-2.98;60.55;102057.94;5049308;28;20041;-86
2024/01/11 02:24:50;;;;;;;64.97;28.02;;;-3.50;99.90;;;-2.98;60.19;102063.97;5038410;28;20103;-85
2024/01/11 02:27:18;;;;;;;59.58;27.05;;;-3.50;99.90;;;-3.00;59.96;102065.00;5031285;28;20037;-86
2024/01/11 02:29:48;;;;;;;53.03;26.50;;;-3.50;99.90;;;-3.02;60.72;102075.53;5007787;28;20045;-86
2024/01/11 02:32:17;;;;;;;55.30;27.00;;;-3.50;99.90;;;-3.04;60.63;102079.97;5015634;28;20554;-85
2024/01/11 02:34:48;;;;;;;58.28;27.90;;;-3.60;99.90;;;-3.03;60.58;102073.00;5005007;28;20068;-85
2024/01/11 02:37:16;;;;;;;61.38;27.02;;;-3.60;99.90;;;-3.01;60.85;102063.34;5022505;28;20050;-86
2024/01/11 02:39:44;;;;;;;59.17;28.13;;;-3.40;99.90;;;-3.03;60.31;102067.78;5038044;28;20068;-85
2024/01/11 02:42:13;;;;;;;62.83;28.35;;;-3.60;99.90;;;-3.03;60.50;102067.78;5039599;28;20128;-85
2024/01/11 02:44:41;;;;;;;61.88;27.75;;;-3.60;99.90;;;-3.03;60.54;102070.38;5027284;28;20048;-85
2024/01/11 02:47:08;;;;;;;57.97;27.90;;;-3.60;99.90;;;-3.07;60.48;102074.94;5039406;28;20099;-86
2024/01/11 02:49:38;;;;;;;58.80;27.83;;;-3.60;99.90;;;-3.07;60.24;102069.72;5044716;28;20131;-87
2024/01/11 02:52:07;;;;;;;55.30;27.40;;;-3.60;99.90;;;-3.07;60.04;102063.63;5054902;28;20055;-85
2024/01/11 02:54:34;;;;;;;56.90;28.58;;;-3.60;99.90;;;-3.07;60.54;102072.34;5040685;28;20199;-86
2024/01/11 02:57:02;;;;;;;57.85;27.92;;;-3.60;99.90;;;-3.05;60.47;102074.84;5059294;28;20460;-85
2024/01/11 02:59:32;;;;;;;60.03;27.83;;;-3.60;99.90;;;-3.05;59.95;102072.25;5058324;28;20041;-85
2024/01/11 03:02:00;;;;;;;57.72;27.85;;;-3.60;99.90;;;-3.05;60.66;102069.63;5028906;28;20041;-86
2024/01/11 03:04:28;;;;;;;56.47;26.90;;;-3.60;99.90;;;-3.05;60.62;102070.47;5040229;28;20081;-86
2024/01/11 03:06:55;;;;;;;56.78;28.15;;;-3.60;99.90;;;-3.05;60.17;102072.25;5008126;28;20528;-86
2024/01/11 03:09:23;;;;;;;59.78;27.67;;;-3.60;99.90;;;-3.07;60.06;102067.13;5056817;28;20408;-85
2024/01/11 03:11:50;;;;;;;61.63;27.80;;;-3.60;99.90;;;-3.01;60.17;102065.94;5038279;28;20045;-85
2024/01/11 03:14:18;;;;;;;64.18;28.80;;;-3.60;99.90;;;-2.99;60.15;102070.13;5043176;28;20091;-86
2024/01/11 03:16:47;;;;;;;62.53;26.52;;;-3.50;99.90;;;-3.00;60.38;102071.06;5053401;28;20068;-86
2024/01/11 03:19:15;;;;;;;62.15;28.55;;;-3.60;99.90;;;-2.99;59.64;102074.50;5040834;28;20069;-86
2024/01/11 03:21:46;;;;;;;64.22;27.95;;;-3.50;99.90;;;-3.00;59.68;102071.06;5018245;28;20045;-85
2024/01/11 03:24:13;;;;;;;;;;;-3.50;99.90;;;-2.97;59.99;102077.91;5032994;28;20049;-85
2024/01/11 03:26:42;;;;;;;58.75;28.08;;;-3.50;99.90;;;-2.99;60.00;102075.34;5041367;28;20015;-85
2024/01/11 03:29:09;;;;;;;66.30;29.13;;;-3.50;99.90;;;-3.00;59.97;102084.13;5059276;28;20040;-85
2024/01/11 03:31:41;;;;;;;57.65;28.17;;;-3.50;99.90;;;-3.05;59.92;102077.47;5027058;28;20042;-85
2024/01/11 03:34:10;;;;;;;63.75;29.88;;;-3.60;99.90;;;-3.07;60.07;102068.88;4991154;28;20069;-85
2024/01/11 03:36:40;;;;;;;62.03;28.95;;;-3.60;99.90;;;-3.06;59.45;102067.97;5039823;28;20068;-85
2024/01/11 03:39:08;;;;;;;60.90;28.50;;;-3.60;99.90;;;-3.07;59.78;102067.13;5041651;28;20053;-86
2024/01/11 03:41:35;;;;;;;58.75;27.92;;;-3.60;99.90;;;-3.08;59.93;102078.47;5022311;28;20470;-86
2024/01/11 03:44:03;;;;;;;61.88;28.10;;;-3.60;99.90;;;-3.12;60.10;102085.63;5039624;28;20444;-85
2024/01/11 03:46:31;;;;;;;60.75;27.77;;;-3.70;99.90;;;-3.17;60.29;102084.19;5022433;28;20045;-85
2024/01/11 03:49:00;;;;;;;60.53;28.17;;;-3.70;99.90;;;-3.14;60.51;102097.91;5039619;28;20049;-85
2024/01/11 03:51:29;;;;;;;64.60;29.60;;;-3.70;99.90;;;-3.15;60.25;102088.41;5040356;28;20451;-85
2024/01/11 03:53:57;;;;;;;65.32;28.88;;;-3.70;99.90;;;-3.13;60.76;102096.13;5044016;28;20117;-85
2024/01/11 03:56:28;;;;;;;66.47;28.92;;;-3.70;99.90;;;-3.14;59.65;102094.44;5038735;28;20115;-85
2024/01/11 03:58:56;;;;;;;63.85;29.60;;;-3.70;99.90;;;-3.15;60.40;102093.63;5020635;28;20052;-85
2024/01/11 04:01:31;;;;;;;61.42;28.10;;;-3.70;99.90;;;-3.12;60.17;102105.66;5034524;28;20041;-85
2024/01/11 04:03:58;;;;;;;67.78;30.85;;;-3.60;99.90;;;-3.12;60.73;102097.84;5000973;28;20054;-85
2024/01/11 04:06:26;;;;;;;67.03;30.60;;;-3.60;99.90;;;-3.11;60.19;102105.56;5014736;28;20104;-85
2024/01/11 04:08:56;;;;;;;63.55;30.00;;;-3.70;99.90;;;-3.08;60.58;102108.94;4999757;28;20050;-86
2024/01/11 04:11:24;;;;;;;63.13;28.63;;;-3.60;99.90;;;-3.06;60.36;102101.88;5014510;28;20115;-85
2024/01/11 04:13:51;;;;;;;68.00;30.55;;;-3.60;99.90;;;-3.07;60.40;102111.47;4997252;28;20046;-85
2024/01/11 04:16:19;;;;;;;66.40;29.92;;;-3.60;99.90;;;-3.06;60.84;102101.88;5002049;28;20398;-85
2024/01/11 04:18:50;;;;;;;68.60;29.90;;;-3.60;99.90;;;-3.03;60.71;102114.75;4994108;28;20058;-86
2024/01/11 04:21:25;;;;;;;68.72;31.17;;;-3.60;99.90;;;-3.05;60.34;102125.28;4975677;28;20445;-85
2024/01/11 04:23:54;;;;;;;68.20;30.23;;;-3.60;99.90;;;-3.06;60.34;102109.72;4958975;28;20050;-85
2024/01/11 04:26:22;;;;;;;61.92;28.60;;;-3.60;99.90;;;-3.07;60.54;102106.25;4977974;28;20055;-85
2024/01/11 04:28:58;;;;;;;70.10;29.48;;;-3.60;99.90;;;-3.08;60.28;102104.56;4977439;28;20050;-86
2024/01/11 04:31:26;;;;;;;62.35;29.85;;;-3.70;99.90;;;-3.09;60.69;102112.47;4977215;28;20043;-85
2024/01/11 04:33:54;;;;;;;68.60;30.50;;;-3.60;99.90;;;-3.07;60.88;102121.91;4962155;28;20542;-85
2024/01/11 04:36:22;;;;;;;63.17;29.40;;;-3.60;99.90;;;-3.06;60.65;102115.78;4983840;28;20497;-85
2024/01/11 04:38:50;;;;;;;64.78;29.25;;;-3.60;99.90;;;-3.07;60.58;102118.44;5016780;28;20046;-85
2024/01/11 04:41:19;;;;;;;74.50;30.17;;;-3.60;99.90;;;-3.10;60.75;102122.06;5016517;28;20049;-85
2024/01/11 04:43:50;;;;;;;62.92;29.13;;;-3.60;99.90;;;-3.10;60.53;102111.63;5000908;28;20051;-85
2024/01/11 04:46:18;;;;;;;64.00;30.75;;;-3.60;99.90;;;-3.12;60.07;102114.34;5000443;28;20593;-85
2024/01/11 04:48:46;;;;;;;59.65;29.25;;;-3.60;99.90;;;-3.14;59.93;102118.78;5000561;28;20541;-85
2024/01/11 04:51:15;;;;;;;63.15;29.23;;;-3.60;99.90;;;-3.17;60.31;102124.19;4984355;28;20084;-85
2024/01/11 04:53:46;;;;;;;69.47;29.83;;;-3.70;99.90;;;-3.21;60.50;102120.03;5001415;28;20051;-85
2024/01/11 04:56:16;;;;;;;62.08;29.10;;;-3.70;99.90;;;-3.23;59.86;102116.66;5042613;28;20045;-85
2024/01/11 04:58:47;;;;;;;59.50;28.25;;;-3.70;99.90;;;-3.24;59.69;102112.38;5024029;28;20049;-85
2024/01/11 05:01:16;;;;;;;58.45;28.48;;;-3.80;99.90;;;-3.26;59.89;102100.34;5042952;28;20061;-85
2024/01/11 05:03:44;;;;;;;63.67;27.95;;;-3.80;99.90;;;-3.30;59.75;102117.91;5023321;28;20033;-85
2024/01/11 05:06:17;;;;;;;64.97;28.42;;;-3.90;99.90;;;-3.35;59.67;102124.31;5034386;28;20040;-85
2024/01/11 05:08:46;;;;;;;59.97;28.23;;;-3.90;99.90;;;-3.36;59.84;102123.47;5044598;28;20056;-85
2024/01/11 05:11:20;;;;;;;63.60;28.48;;;-3.70;99.90;;;-3.40;59.84;102133.22;5060765;28;20041;-85
2024/01/11 05:13:49;;;;;;;59.55;28.00;;;-3.90;99.90;;;-3.38;60.24;102127.91;5051260;28;20522;-85
2024/01/11 05:16:27;;;;;;;62.72;28.85;;;-3.90;99.90;;;-3.40;59.18;102129.75;5021593;28;20068;-85
2024/01/11 05:18:56;;;;;;;61.67;28.77;;;-4.00;99.90;;;-3.44;59.66;102126.47;5060847;28;20098;-85
2024/01/11 05:21:25;;;;;;;60.33;27.35;;;-4.00;99.90;;;-3.47;59.53;102139.66;5042364;28;20041;-85
2024/01/11 05:23:52;;;;;;;63.83;29.05;;;-4.10;99.90;;;-3.48;59.44;102131.91;5048464;28;20037;-85
2024/01/11 05:26:21;;;;;;;65.32;28.70;;;-4.00;99.90;;;-3.44;60.25;102141.25;5036135;28;20167;-83
2024/01/11 05:28:49;;;;;;;64.07;29.40;;;-4.00;99.90;;;-3.44;60.30;102149.94;5045790;28;20099;-83
2024/01/11 05:31:18;;;;;;;67.40;30.05;;;-4.00;99.90;;;-3.44;60.10;102151.69;5058898;28;20060;-83
2024/01/11 05:33:46;;;;;;;67.72;29.42;;;-4.00;99.90;;;-3.43;60.91;102158.59;5021783;28;20041;-83
2024/01/11 05:36:13;;;;;;;62.58;29.45;;;-3.90;99.90;;;-3.42;60.91;102155.06;5054154;28;20092;-84
2024/01/11 05:38:41;;;;;;;60.03;28.27;;;-4.00;99.90;;;-3.44;60.02;102146.47;5033542;28;20081;-82
2024/01/11 05:41:09;;;;;;;77.13;30.80;;;-4.00;99.90;;;-3.42;60.34;102163.72;5043377;28;20090;-82
2024/01/11 05:43:36;;;;;;;64.30;29.83;;;-3.90;99.90;;;-3.42;60.64;102170.69;5041833;28;20077;-82
2024/01/11 05:46:06;;;;;;;67.72;30.73;;;-4.00;99.90;;;-3.41;60.66;102172.41;5048855;28;20117;-82
2024/01/11 05:48:35;;;;;;;65.45;30.20;;;-4.00;99.90;;;-3.40;60.39;102185.38;5057025;28;20600;-82
2024/01/11 05:51:02;;;;;;;63.15;29.85;;;-3.90;99.90;;;-3.40;60.23;102182.75;5021796;28;20029;-83
2024/01/11 05:53:33;;;;;;;74.55;30.90;;;-3.90;99.90;;;-3.40;61.19;102190.59;5030512;28;20045;-83
2024/01/11 05:56:00;;;;;;;73.25;32.65;;;-3.90;99.90;;;-3.37;60.43;102186.97;5054767;28;20045;-82
2024/01/11 05:58:28;;;;;;;66.75;30.77;;;-3.90;99.90;;;-3.35;60.86;102189.50;5056405;28;20041;-82
2024/01/11 06:00:56;;;;;;;74.35;32.22;;;-3.90;99.90;;;-3.34;61.18;102167.72;5056938;28;20041;-83
2024/01/11 06:03:26;;;;;;;73.35;30.73;;;-3.80;99.90;;;-3.30;60.77;102172.69;5013790;28;20047;-84
2024/01/11 06:05:53;;;;;;;69.15;30.48;;;-3.80;99.90;;;-3.27;60.84;102176.88;5048587;28;20091;-83
2024/01/11 06:08:23;;;;;;;73.32;31.95;;;-3.80;99.90;;;-3.26;60.73;102178.59;5043911;28;20041;-83
2024/01/11 06:10:51;;;;;;;68.75;31.02;;;-3.80;99.90;;;-3.24;60.26;102174.13;5050051;28;20053;-83
2024/01/11 06:13:19;;;;;;;66.00;31.55;;;-3.80;99.90;;;-3.23;60.23;102160.16;5037099;28;20076;-83
2024/01/11 06:15:47;;;;;;;72.82;33.05;;;-3.80;99.90;;;-3.25;60.18;102157.66;5055969;28;20044;-85
2024/01/11 06:18:14;;;;;;;68.80;31.85;;;-3.80;99.90;;;-3.24;60.29;102163.69;5006607;28;20080;-84
2024/01/11 06:20:43;;;;;;;72.50;32.70;;;-3.80;99.90;;;-3.25;60.26;102162.84;5039761;28;20056;-84
2024/01/11 06:23:16;;;;;;;71.20;31.40;;;-3.80;99.90;;;-3.28;60.59;102155.19;5005525;28;20099;-83
2024/01/11 06:25:46;;;;;;;72.63;33.35;;;-3.80;99.90;;;-3.26;60.93;102149.91;4989123;28;20538;-83
2024/01/11 06:28:13;;;;;;;73.60;33.63;;;-3.70;99.90;;;-3.24;59.82;102145.44;5049722;28;20476;-83
2024/01/11 06:30:43;;;;;;;75.57;33.20;;;-3.70;99.90;;;-3.25;60.60;102152.44;5014006;28;20060;-84
2024/01/11 06:33:11;;;;;;;71.72;32.55;;;-3.80;99.90;;;-3.26;59.90;102153.34;5031579;28;20095;-83
2024/01/11 06:35:38;;;;;;;70.05;32.53;;;-3.50;99.90;;;-3.27;60.45;102151.69;4989595;28;20132;-84
2024/01/11 06:38:09;;;;;;;75.50;34.08;;;-3.80;99.90;;;-3.25;60.68;102148.97;5057586;28;20068;-84
2024/01/11 06:40:37;;;;;;;79.53;32.63;;;-3.80;99.90;;;-3.25;60.67;102152.44;5031432;28;20140;-82
2024/01/11 06:43:07;;;;;;;80.35;33.28;;;-3.80;99.90;;;-3.27;59.89;102151.69;5004944;28;20038;-83
2024/01/11 06:45:35;;;;;;;68.70;32.45;;;-3.80;99.90;;;-3.29;60.10;102161.31;5019642;28;20501;-82
2024/01/11 06:48:06;;;;;;;71.18;32.45;;;-3.80;99.90;;;-3.30;60.36;102172.69;5004007;28;20461;-83
2024/01/11 06:50:33;;;;;;;70.32;31.23;;;-3.80;99.90;;;-3.36;60.41;102183.44;5021112;28;20049;-82
2024/01/11 06:53:02;;;;;;;68.03;30.25;;;-3.90;99.90;;;-3.41;60.15;102188.06;5019151;28;20091;-82
2024/01/11 06:55:31;;;;;;;70.93;31.35;;;-4.00;99.90;;;-3.46;60.34;102177.03;5019693;28;20077;-85
2024/01/11 06:58:01;;;;;;;70.85;31.23;;;-4.00;99.90;;;-3.45;60.19;102186.53;5003725;28;20052;-86
2024/01/11 07:00:29;;;;;;;67.22;32.03;;;-4.00;99.90;;;-3.47;60.17;102177.91;5026322;28;20050;-85
2024/01/11 07:02:57;;;;;;;63.70;31.30;;;-4.00;99.90;;;-3.47;60.38;102176.16;5003141;28;20041;-86
2024/01/11 07:05:25;;;;;;;69.63;32.60;;;-4.00;99.90;;;-3.44;60.43;102177.78;5040271;28;20451;-86
2024/01/11 07:07:52;;;;;;;79.40;32.60;;;-4.00;99.90;;;-3.44;60.22;102183.00;5036322;28;20052;-86
2024/01/11 07:10:21;;;;;;;73.93;32.65;;;-4.00;99.90;;;-3.42;60.11;102170.69;5029379;28;20041;-86
2024/01/11 07:12:51;;;;;;;73.72;33.25;;;-4.00;99.90;;;-3.39;60.06;102184.44;5004181;28;20110;-86
2024/01/11 07:15:18;;;;;;;65.43;31.20;;;-3.90;99.90;;;-3.38;60.51;102185.28;5019937;28;20521;-86
2024/01/11 07:17:46;;;;;;;77.72;35.00;;;-3.90;99.90;;;-3.37;60.36;102200.00;5033206;28;20041;-86
2024/01/11 07:20:16;;;;;;;68.88;31.92;;;-3.90;99.90;;;-3.39;60.38;102202.69;5037198;28;20053;-86
2024/01/11 07:22:44;;;;;;;67.75;30.13;;;-3.90;99.90;;;-3.40;60.87;102208.00;5028350;28;20447;-86
2024/01/11 07:25:14;;;;;;;67.63;31.17;;;-3.90;99.90;;;-3.42;60.57;102220.25;5003385;28;20057;-86
2024/01/11 07:27:41;;;;;;;65.20;30.00;;;-4.00;99.90;;;-3.46;60.45;102229.19;5019926;28;20576;-86
2024/01/11 07:30:13;;;;;;;68.70;30.67;;;-4.00;99.90;;;-3.51;59.96;102229.41;5036190;28;20065;-85
2024/01/11 07:32:41;;;;;;;69.15;30.85;;;-4.00;99.90;;;-3.53;60.47;102217.34;4999899;28;20061;-86
2024/01/11 07:35:10;;;;;;;67.32;30.85;;;-4.00;99.90;;;-3.52;60.77;102213.81;5017465;28;20401;-86
2024/01/11 07:37:38;;;;;;;70.60;30.42;;;-4.00;99.90;;;-3.47;60.71;102217.03;4968781;28;20049;-86
2024/01/11 07:40:11;;;;;;;74.35;32.03;;;-3.90;99.90;;;-3.44;60.58;102217.72;5036271;28;20424;-86
2024/01/11 07:42:39;;;;;;;72.38;31.65;;;-3.90;99.90;;;-3.42;60.52;102210.66;5001167;28;20095;-86
2024/01/11 07:45:11;;;;;;;77.13;31.02;;;-3.90;99.90;;;-3.37;60.66;102205.22;5035651;28;20171;-86
2024/01/11 07:47:41;;;;;;;72.75;32.50;;;-3.80;99.90;;;-3.34;60.18;102199.00;5035473;28;20061;-86
2024/01/11 07:50:10;;;;;;;70.20;32.80;;;-3.80;99.90;;;-3.33;60.75;102201.53;5019460;28;20052;-86
2024/01/11 07:52:38;;;;;;;68.80;31.40;;;-3.80;99.90;;;-3.31;61.43;102196.25;5016807;28;20042;-87
2024/01/11 07:55:07;;;;;;;76.75;34.33;;;-3.80;99.90;;;-3.29;60.80;102195.25;5017201;28;20509;-87
2024/01/11 07:57:35;;;;;;;72.75;32.28;;;-3.80;99.90;;;-3.32;60.66;102190.16;5017398;28;20057;-87
2024/01/11 08:00:06;;;;;;;77.63;32.10;;;-3.80;99.90;;;-3.32;60.97;102195.38;5017838;28;21458;-86
2024/01/11 08:02:42;;;;;;;82.15;35.15;;;-3.80;99.90;;;-3.31;61.34;102191.88;5034198;28;20072;-87
2024/01/11 08:05:11;;;;;;;93.93;36.85;;;-3.70;99.90;;;-3.31;61.43;102196.25;5016517;28;20057;-87
2024/01/11 08:07:39;;;;;;;87.32;36.15;;;-3.70;99.90;;;-3.28;60.97;102186.47;5034875;28;20099;-86
2024/01/11 08:10:09;;;;;;;79.25;34.70;;;-3.70;99.90;;;-3.28;61.45;102186.47;5019144;28;20041;-87
2024/01/11 08:12:37;;;;;;;82.13;34.85;;;-3.70;99.90;;;-3.26;61.44;102182.06;5000314;28;20053;-87
2024/01/11 08:15:06;;;;;;;76.90;36.05;;;-3.70;99.90;;;-3.22;61.18;102188.81;5034428;28;20052;-87
2024/01/11 08:17:34;;;;;;;88.53;37.10;;;-3.70;99.90;;;-3.22;61.44;102195.75;5024163;28;20086;-87
2024/01/11 08:20:07;;;;;;;83.28;36.33;;;-3.70;99.90;;;-3.22;61.12;102186.19;5057149;28;20045;-87
2024/01/11 08:22:36;;;;;;;81.00;34.95;;;-3.60;99.90;;;-3.20;61.26;102180.88;5041219;28;20060;-86
2024/01/11 08:25:06;;;;;;;79.63;36.30;;;-3.60;99.90;;;-3.17;61.33;102189.41;5023993;28;20103;-86
2024/01/11 08:27:34;;;;;;;81.43;36.08;;;-3.60;99.90;;;-3.16;61.33;102200.69;5030917;28;20041;-87
2024/01/11 08:30:02;;;;;;;81.90;36.65;;;-3.60;99.90;;;-3.17;61.61;102192.00;5026023;28;20053;-86
2024/01/11 08:32:29;;;;;;;78.95;36.30;;;-3.60;99.90;;;-3.14;61.41;102202.28;5019901;28;20041;-87
2024/01/11 08:34:59;;;;;;;83.75;37.28;;;-3.50;99.90;;;-3.13;62.04;102206.56;5038123;28;20136;-86
2024/01/11 08:37:28;;;;;;;76.05;35.80;;;-3.50;99.90;;;-3.12;61.26;102210.03;5006504;28;20049;-86
2024/01/11 08:39:55;;;;;;;72.05;34.40;;;-3.50;99.90;;;-3.15;61.76;102224.06;5039150;28;20057;-87
2024/01/11 08:42:23;;;;;;;80.95;36.28;;;-3.50;99.90;;;-3.11;62.23;102222.16;4987144;28;20080;-87
2024/01/11 08:44:51;;;;;;;79.57;35.63;;;-3.50;99.90;;;-3.09;61.85;102219.47;4971776;28;20509;-86
2024/01/11 08:47:20;;;;;;;85.47;36.13;;;-3.50;99.90;;;-3.08;62.07;102216.75;5022430;28;20045;-87
2024/01/11 08:49:48;;;;;;;72.78;34.65;;;-3.50;99.90;;;-3.04;62.20;102217.44;5021234;28;20049;-87
2024/01/11 08:52:15;;;;;;;74.30;34.72;;;-3.40;99.90;;;-3.01;62.41;102225.97;5004273;28;20041;-87
2024/01/11 08:54:44;;;;;;;77.72;33.33;;;-3.30;99.90;;;-3.02;62.25;102226.06;5037381;28;20099;-87
2024/01/11 08:57:12;;;;;;;76.38;35.78;;;-3.40;99.90;;;-2.99;62.04;102231.94;5004349;28;20057;-87
2024/01/11 08:59:43;;;;;;;84.57;36.08;;;-3.30;99.90;;;-2.97;62.18;102224.06;5040175;28;20045;-87
2024/01/11 09:02:11;;;;;;;82.32;35.75;;;-3.20;99.90;;;-2.94;62.55;102231.69;5017967;28;20045;-87
2024/01/11 09:04:38;;;;;;;79.90;35.35;;;-3.20;99.90;;;-2.89;62.66;102237.53;5037814;28;20080;-87
2024/01/11 09:07:06;;;;;;;81.18;35.25;;;-3.20;99.90;;;-2.88;62.72;102232.25;4987787;28;20108;-87
2024/01/11 09:09:34;;;;;;;76.68;35.13;;;-3.20;99.90;;;-2.82;62.62;102233.69;5023861;28;20083;-87
2024/01/11 09:12:04;;;;;;;75.30;35.35;;;-3.20;99.90;;;-2.77;62.96;102243.88;5021445;28;20049;-86
2024/01/11 09:14:32;;;;;;;82.22;36.28;;;-3.10;99.90;;;-2.75;62.46;102249.84;5020348;28;20045;-87
2024/01/11 09:16:59;;;;;;;83.40;36.53;;;-3.00;99.90;;;-2.72;62.52;102255.78;5019774;28;20065;-87
2024/01/11 09:19:27;;;;;;;83.78;35.20;;;-3.00;99.90;;;-2.69;63.16;102247.75;5019844;28;20056;-86
2024/01/11 09:21:55;;;;;;;76.85;35.63;;;-2.90;99.90;;;-2.64;63.15;102231.84;5021853;28;20120;-87
2024/01/11 09:24:23;;;;;;;82.22;36.63;;;-2.90;99.90;;;-2.61;62.45;102235.13;5019325;28;20045;-87
2024/01/11 09:26:53;;;;;;;83.70;36.50;;;-2.90;99.90;;;-2.57;63.12;102245.44;5036207;28;20492;-87
2024/01/11 09:29:22;;;;;;;82.10;35.92;;;-2.80;99.90;;;-2.55;62.46;102240.97;5019396;28;20055;-87
2024/01/11 09:31:50;;;;;;;80.75;35.80;;;-2.80;99.90;;;-2.54;63.16;102253.09;5002983;28;20049;-87
2024/01/11 09:34:18;;;;;;;83.90;38.00;;;-2.80;99.90;;;-2.54;62.51;102259.16;5040207;28;20052;-86
2024/01/11 09:36:46;;;;;;;84.80;35.83;;;-2.80;99.90;;;-2.52;62.57;102256.47;5059224;28;20079;-86
2024/01/11 09:39:14;;;;;;;82.25;37.55;;;-2.80;99.90;;;-2.52;63.20;102257.31;5059324;28;20495;-86
2024/01/11 09:41:51;;;;;;;80.05;37.70;;;-2.70;99.90;;;-2.50;62.85;102252.00;5026698;28;20516;-86
2024/01/11 09:44:20;;;;;;;87.18;37.58;;;-2.70;99.90;;;-2.45;63.42;102252.59;5042233;28;20596;-87
2024/01/11 09:46:49;;;;;;;79.30;36.58;;;-2.60;99.90;;;-2.42;62.92;102252.44;5017267;28;20049;-85
2024/01/11 09:49:18;;;;;;;82.18;37.35;;;-2.60;99.90;;;-2.38;62.83;102252.19;5005709;28;20536;-85
2024/01/11 09:51:47;;;;;;;79.47;37.22;;;-2.60;99.90;;;-2.37;62.85;102253.88;5006205;28;20045;-86
2024/01/11 09:54:16;;;;;;;78.40;37.13;;;-2.60;99.90;;;-2.35;63.16;102256.38;5004993;28;20049;-85
2024/01/11 09:56:45;;;;;;;77.60;37.65;;;-2.60;99.90;;;-2.31;62.97;102272.75;5004736;28;20045;-86
2024/01/11 09:59:13;;;;;;;78.95;38.58;;;-2.50;99.90;;;-2.30;62.52;102263.97;5038689;28;20042;-86
2024/01/11 10:01:41;;;;;;;79.05;37.33;;;-2.50;99.90;;;-2.27;63.05;102263.81;5022572;28;20072;-86
2024/01/11 10:04:12;;;;;;;85.88;37.53;;;-2.50;99.90;;;-2.24;62.74;102280.19;5058022;28;20116;-86
2024/01/11 10:06:40;;;;;;;84.45;39.38;;;-2.40;99.90;;;-2.21;62.66;102280.00;5039538;28;20045;-86